createdAt,value
2023-03-19T00:00:09.590Z,947.65
2023-03-19T00:00:21.569Z,947.65
2023-03-19T00:00:32.600Z,947.64
2023-03-19T00:00:44.574Z,947.64
2023-03-19T00:00:55.604Z,947.63
2023-03-19T00:01:07.587Z,947.63
2023-03-19T00:01:18.588Z,947.62
2023-03-19T00:01:29.567Z,947.62
2023-03-19T00:01:40.589Z,947.61
2023-03-19T00:01:51.625Z,947.60
2023-03-19T00:02:16.314Z,947.60
2023-03-19T00:02:18.007Z,947.59
2023-03-19T00:02:25.596Z,947.58
2023-03-19T00:02:37.582Z,947.58
2023-03-19T00:02:48.603Z,947.57
2023-03-19T00:03:00.830Z,947.57
2023-03-19T00:03:12.616Z,947.57
2023-03-19T00:03:24.696Z,947.57
2023-03-19T00:03:36.668Z,947.57
2023-03-19T00:03:48.646Z,947.57
2023-03-19T00:03:59.584Z,947.57
2023-03-19T00:04:10.585Z,947.57
2023-03-19T00:04:21.591Z,947.57
2023-03-19T00:04:33.585Z,947.57
2023-03-19T00:04:44.605Z,947.57
2023-03-19T00:04:56.590Z,947.57
2023-03-19T00:05:07.584Z,947.57
2023-03-19T00:05:18.591Z,947.57
2023-03-19T00:05:30.574Z,947.57
2023-03-19T00:05:42.587Z,947.56
2023-03-19T00:05:53.714Z,947.56
2023-03-19T00:06:04.564Z,947.56
2023-03-19T00:06:15.585Z,947.56
2023-03-19T00:06:26.608Z,947.55
2023-03-19T00:06:38.589Z,947.55
2023-03-19T00:06:49.601Z,947.54
2023-03-19T00:07:01.573Z,947.54
2023-03-19T00:07:13.592Z,947.54
2023-03-19T00:07:25.591Z,947.54
2023-03-19T00:07:36.582Z,947.53
2023-03-19T00:07:47.592Z,947.54
2023-03-19T00:07:59.584Z,947.54
2023-03-19T00:08:10.598Z,947.54
2023-03-19T00:08:21.597Z,947.54
2023-03-19T00:08:32.543Z,947.54
2023-03-19T00:08:43.548Z,947.54
2023-03-19T00:08:54.549Z,947.54
2023-03-19T00:09:05.562Z,947.55
2023-03-19T00:09:16.572Z,947.55
2023-03-19T00:09:27.588Z,947.55
2023-03-19T00:09:39.595Z,947.55
2023-03-19T00:09:50.593Z,947.55
2023-03-19T00:10:01.595Z,947.56
2023-03-19T00:10:13.578Z,947.56
2023-03-19T00:10:24.577Z,947.56
2023-03-19T00:10:35.597Z,947.56
2023-03-19T00:10:46.602Z,947.55
2023-03-19T00:10:57.600Z,947.55
2023-03-19T00:11:09.610Z,947.55
2023-03-19T00:11:21.619Z,947.55
2023-03-19T00:11:33.579Z,947.55
2023-03-19T00:11:44.582Z,947.55
2023-03-19T00:11:55.583Z,947.55
2023-03-19T00:12:07.615Z,947.55
2023-03-19T00:12:19.578Z,947.54
2023-03-19T00:12:30.590Z,947.54
2023-03-19T00:12:41.607Z,947.53
2023-03-19T00:12:53.575Z,947.53
2023-03-19T00:13:04.598Z,947.53
2023-03-19T00:13:15.612Z,947.53
2023-03-19T00:13:27.576Z,947.53
2023-03-19T00:13:38.576Z,947.53
2023-03-19T00:13:49.573Z,947.53
2023-03-19T00:14:01.578Z,947.54
2023-03-19T00:14:12.590Z,947.54
2023-03-19T00:14:23.592Z,947.55
2023-03-19T00:14:34.609Z,947.55
2023-03-19T00:14:46.597Z,947.55
2023-03-19T00:14:57.602Z,947.55
2023-03-19T00:15:09.572Z,947.55
2023-03-19T00:15:20.636Z,947.54
2023-03-19T00:15:32.933Z,947.54
2023-03-19T00:15:43.570Z,947.54
2023-03-19T00:15:54.587Z,947.54
2023-03-19T00:16:05.586Z,947.54
2023-03-19T00:16:16.604Z,947.54
2023-03-19T00:16:28.614Z,947.55
2023-03-19T00:16:40.636Z,947.55
2023-03-19T00:16:51.631Z,947.55
2023-03-19T00:17:03.598Z,947.55
2023-03-19T00:17:15.584Z,947.55
2023-03-19T00:17:26.593Z,947.55
2023-03-19T00:17:37.605Z,947.55
2023-03-19T00:17:48.624Z,947.55
2023-03-19T00:18:00.587Z,947.55
2023-03-19T00:18:11.610Z,947.54
2023-03-19T00:18:23.593Z,947.54
2023-03-19T00:18:35.601Z,947.54
2023-03-19T00:18:46.619Z,947.54
2023-03-19T00:18:57.564Z,947.53
2023-03-19T00:19:08.573Z,947.53
2023-03-19T00:19:19.603Z,947.53
2023-03-19T00:19:30.647Z,947.53
2023-03-19T00:19:42.603Z,947.53
2023-03-19T00:19:53.610Z,947.53
2023-03-19T00:20:05.596Z,947.53
2023-03-19T00:20:16.609Z,947.54
2023-03-19T00:20:28.565Z,947.54
2023-03-19T00:20:39.600Z,947.54
2023-03-19T00:20:51.595Z,947.54
2023-03-19T00:21:02.599Z,947.54
2023-03-19T00:21:13.598Z,947.54
2023-03-19T00:21:26.071Z,947.54
2023-03-19T00:21:36.559Z,947.54
2023-03-19T00:21:47.581Z,947.54
2023-03-19T00:21:58.598Z,947.54
2023-03-19T00:22:10.601Z,947.54
2023-03-19T00:22:21.617Z,947.54
2023-03-19T00:22:33.597Z,947.54
2023-03-19T00:22:44.610Z,947.53
2023-03-19T00:22:56.578Z,947.54
2023-03-19T00:23:08.159Z,947.53
2023-03-19T00:23:18.617Z,947.53
2023-03-19T00:23:30.567Z,947.54
2023-03-19T00:23:41.579Z,947.54
2023-03-19T00:23:52.564Z,947.54
2023-03-19T00:24:04.582Z,947.54
2023-03-19T00:24:15.599Z,947.54
2023-03-19T00:24:27.617Z,947.53
2023-03-19T00:24:39.575Z,947.54
2023-03-19T00:24:50.567Z,947.53
2023-03-19T00:25:01.585Z,947.54
2023-03-19T00:25:12.592Z,947.53
2023-03-19T00:25:23.590Z,947.53
2023-03-19T00:25:34.940Z,947.53
2023-03-19T00:25:46.611Z,947.53
2023-03-19T00:25:57.567Z,947.53
2023-03-19T00:26:08.578Z,947.53
2023-03-19T00:26:19.582Z,947.53
2023-03-19T00:26:30.613Z,947.54
2023-03-19T00:26:42.623Z,947.54
2023-03-19T00:26:54.584Z,947.54
2023-03-19T00:27:05.585Z,947.55
2023-03-19T00:27:16.590Z,947.55
2023-03-19T00:27:27.625Z,947.55
2023-03-19T00:27:39.586Z,947.55
2023-03-19T00:27:51.583Z,947.55
2023-03-19T00:28:02.590Z,947.55
2023-03-19T00:28:13.585Z,947.55
2023-03-19T00:28:24.597Z,947.56
2023-03-19T00:28:35.634Z,947.56
2023-03-19T00:28:47.625Z,947.56
2023-03-19T00:28:59.648Z,947.57
2023-03-19T00:29:11.613Z,947.57
2023-03-19T00:29:22.612Z,947.57
2023-03-19T00:29:34.606Z,947.57
2023-03-19T00:29:46.591Z,947.58
2023-03-19T00:29:57.610Z,947.58
2023-03-19T00:30:08.606Z,947.58
2023-03-19T00:30:19.607Z,947.58
2023-03-19T00:30:31.633Z,947.58
2023-03-19T00:30:42.593Z,947.58
2023-03-19T00:30:54.628Z,947.58
2023-03-19T00:31:06.626Z,947.58
2023-03-19T00:31:18.603Z,947.59
2023-03-19T00:31:30.580Z,947.59
2023-03-19T00:31:41.583Z,947.59
2023-03-19T00:31:52.598Z,947.59
2023-03-19T00:32:03.591Z,947.59
2023-03-19T00:32:15.597Z,947.59
2023-03-19T00:32:27.582Z,947.60
2023-03-19T00:32:38.631Z,947.60
2023-03-19T00:32:50.651Z,947.61
2023-03-19T00:33:01.637Z,947.61
2023-03-19T00:33:12.866Z,947.61
2023-03-19T00:33:24.605Z,947.62
2023-03-19T00:33:35.603Z,947.62
2023-03-19T00:33:46.601Z,947.62
2023-03-19T00:33:57.608Z,947.62
2023-03-19T00:34:09.589Z,947.62
2023-03-19T00:34:20.583Z,947.62
2023-03-19T00:34:31.545Z,947.62
2023-03-19T00:34:42.576Z,947.62
2023-03-19T00:34:53.584Z,947.62
2023-03-19T00:35:05.570Z,947.62
2023-03-19T00:35:16.582Z,947.62
2023-03-19T00:35:27.602Z,947.62
2023-03-19T00:35:39.610Z,947.62
2023-03-19T00:35:50.575Z,947.62
2023-03-19T00:36:01.609Z,947.63
2023-03-19T00:36:12.661Z,947.63
2023-03-19T00:36:24.625Z,947.63
2023-03-19T00:36:36.658Z,947.62
2023-03-19T00:36:48.639Z,947.63
2023-03-19T00:37:00.598Z,947.62
2023-03-19T00:37:12.576Z,947.62
2023-03-19T00:37:23.619Z,947.62
2023-03-19T00:37:34.602Z,947.63
2023-03-19T00:37:45.593Z,947.63
2023-03-19T00:37:57.572Z,947.63
2023-03-19T00:38:09.626Z,947.63
2023-03-19T00:38:21.597Z,947.63
2023-03-19T00:38:32.601Z,947.63
2023-03-19T00:38:44.584Z,947.62
2023-03-19T00:38:55.642Z,947.62
2023-03-19T00:39:07.609Z,947.62
2023-03-19T00:39:19.578Z,947.62
2023-03-19T00:39:30.601Z,947.62
2023-03-19T00:39:41.593Z,947.62
2023-03-19T00:39:52.595Z,947.62
2023-03-19T00:40:03.593Z,947.62
2023-03-19T00:40:15.580Z,947.62
2023-03-19T00:40:26.586Z,947.62
2023-03-19T00:40:37.585Z,947.62
2023-03-19T00:40:48.587Z,947.62
2023-03-19T00:40:59.607Z,947.62
2023-03-19T00:41:11.593Z,947.62
2023-03-19T00:41:22.597Z,947.62
2023-03-19T00:41:33.606Z,947.62
2023-03-19T00:41:45.580Z,947.62
2023-03-19T00:41:56.573Z,947.62
2023-03-19T00:42:07.571Z,947.62
2023-03-19T00:42:18.615Z,947.62
2023-03-19T00:42:30.573Z,947.62
2023-03-19T00:42:41.577Z,947.62
2023-03-19T00:42:52.602Z,947.62
2023-03-19T00:43:03.599Z,947.62
2023-03-19T00:43:14.605Z,947.62
2023-03-19T00:43:25.601Z,947.61
2023-03-19T00:43:37.607Z,947.61
2023-03-19T00:43:48.612Z,947.61
2023-03-19T00:44:00.579Z,947.61
2023-03-19T00:44:11.593Z,947.61
2023-03-19T00:44:22.604Z,947.61
2023-03-19T00:44:33.592Z,947.61
2023-03-19T00:44:45.585Z,947.61
2023-03-19T00:44:56.583Z,947.60
2023-03-19T00:45:07.608Z,947.60
2023-03-19T00:45:19.585Z,947.60
2023-03-19T00:45:30.991Z,947.60
2023-03-19T00:45:41.634Z,947.59
2023-03-19T00:45:52.610Z,947.59
2023-03-19T00:46:04.623Z,947.59
2023-03-19T00:46:15.614Z,947.59
2023-03-19T00:46:27.697Z,947.59
2023-03-19T00:46:38.595Z,947.58
2023-03-19T00:46:49.609Z,947.58
2023-03-19T00:47:00.607Z,947.58
2023-03-19T00:47:12.598Z,947.58
2023-03-19T00:47:24.607Z,947.57
2023-03-19T00:47:36.577Z,947.57
2023-03-19T00:47:47.614Z,947.56
2023-03-19T00:47:59.582Z,947.56
2023-03-19T00:48:10.576Z,947.56
2023-03-19T00:48:21.626Z,947.56
2023-03-19T00:48:33.599Z,947.56
2023-03-19T00:48:44.600Z,947.55
2023-03-19T00:48:55.678Z,947.55
2023-03-19T00:49:06.588Z,947.55
2023-03-19T00:49:17.591Z,947.55
2023-03-19T00:49:29.596Z,947.55
2023-03-19T00:49:41.591Z,947.55
2023-03-19T00:49:52.606Z,947.55
2023-03-19T00:50:04.612Z,947.55
2023-03-19T00:50:16.595Z,947.55
2023-03-19T00:50:27.605Z,947.55
2023-03-19T00:50:38.595Z,947.55
2023-03-19T00:50:49.617Z,947.55
2023-03-19T00:51:01.581Z,947.55
2023-03-19T00:51:12.595Z,947.55
2023-03-19T00:51:23.589Z,947.55
2023-03-19T00:51:34.599Z,947.55
2023-03-19T00:51:45.605Z,947.55
2023-03-19T00:51:57.579Z,947.56
2023-03-19T00:52:08.583Z,947.56
2023-03-19T00:52:19.590Z,947.56
2023-03-19T00:52:30.600Z,947.56
2023-03-19T00:52:41.620Z,947.56
2023-03-19T00:52:53.605Z,947.56
2023-03-19T00:53:04.611Z,947.56
2023-03-19T00:53:16.582Z,947.56
2023-03-19T00:53:27.582Z,947.56
2023-03-19T00:53:38.583Z,947.56
2023-03-19T00:53:49.602Z,947.56
2023-03-19T00:54:00.602Z,947.56
2023-03-19T00:54:11.597Z,947.56
2023-03-19T00:54:22.602Z,947.56
2023-03-19T00:54:33.605Z,947.56
2023-03-19T00:54:44.607Z,947.56
2023-03-19T00:54:56.582Z,947.56
2023-03-19T00:55:07.589Z,947.56
2023-03-19T00:55:18.613Z,947.56
2023-03-19T00:55:30.679Z,947.56
2023-03-19T00:55:42.598Z,947.56
2023-03-19T00:55:53.604Z,947.56
2023-03-19T00:56:05.587Z,947.56
2023-03-19T00:56:16.589Z,947.56
2023-03-19T00:56:28.600Z,947.56
2023-03-19T00:56:40.570Z,947.56
2023-03-19T00:56:51.566Z,947.56
2023-03-19T00:57:02.581Z,947.56
2023-03-19T00:57:13.588Z,947.56
2023-03-19T00:57:24.602Z,947.56
2023-03-19T00:57:36.607Z,947.56
2023-03-19T00:57:48.597Z,947.56
2023-03-19T00:57:59.588Z,947.56
2023-03-19T00:58:10.597Z,947.56
2023-03-19T00:58:22.582Z,947.57
2023-03-19T00:58:33.587Z,947.57
2023-03-19T00:58:45.572Z,947.57
2023-03-19T00:58:56.587Z,947.57
2023-03-19T00:59:07.600Z,947.57
2023-03-19T00:59:18.629Z,947.57
2023-03-19T00:59:30.608Z,947.57
2023-03-19T00:59:41.614Z,947.57
2023-03-19T00:59:53.587Z,947.58
2023-03-19T01:00:04.598Z,947.58
2023-03-19T01:00:16.619Z,947.57
2023-03-19T01:00:27.619Z,947.58
2023-03-19T01:00:39.606Z,947.57
2023-03-19T01:00:50.605Z,947.58
2023-03-19T01:01:01.667Z,947.58
2023-03-19T01:01:12.643Z,947.58
2023-03-19T01:01:23.610Z,947.58
2023-03-19T01:01:34.677Z,947.58
2023-03-19T01:01:46.639Z,947.58
2023-03-19T01:01:57.576Z,947.58
2023-03-19T01:02:08.611Z,947.59
2023-03-19T01:02:20.576Z,947.59
2023-03-19T01:02:31.584Z,947.59
2023-03-19T01:02:42.591Z,947.59
2023-03-19T01:02:53.598Z,947.59
2023-03-19T01:03:04.595Z,947.59
2023-03-19T01:03:16.596Z,947.60
2023-03-19T01:03:28.579Z,947.60
2023-03-19T01:03:39.585Z,947.60
2023-03-19T01:03:50.590Z,947.60
2023-03-19T01:04:01.769Z,947.60
2023-03-19T01:04:13.634Z,947.60
2023-03-19T01:04:25.693Z,947.60
2023-03-19T01:04:36.628Z,947.60
2023-03-19T01:04:48.695Z,947.60
2023-03-19T01:05:00.601Z,947.59
2023-03-19T01:05:11.622Z,947.59
2023-03-19T01:05:23.605Z,947.59
2023-03-19T01:05:35.582Z,947.59
2023-03-19T01:05:46.586Z,947.59
2023-03-19T01:05:57.584Z,947.59
2023-03-19T01:06:08.586Z,947.59
2023-03-19T01:06:20.574Z,947.59
2023-03-19T01:06:31.566Z,947.59
2023-03-19T01:06:42.585Z,947.59
2023-03-19T01:06:53.582Z,947.59
2023-03-19T01:07:04.582Z,947.59
2023-03-19T01:07:15.593Z,947.59
2023-03-19T01:07:26.607Z,947.59
2023-03-19T01:07:38.580Z,947.58
2023-03-19T01:07:49.583Z,947.58
2023-03-19T01:08:01.588Z,947.57
2023-03-19T01:08:12.592Z,947.57
2023-03-19T01:08:23.601Z,947.57
2023-03-19T01:08:34.618Z,947.56
2023-03-19T01:08:46.609Z,947.56
2023-03-19T01:08:58.577Z,947.55
2023-03-19T01:09:09.569Z,947.55
2023-03-19T01:09:20.576Z,947.54
2023-03-19T01:09:31.604Z,947.54
2023-03-19T01:09:42.561Z,947.54
2023-03-19T01:09:53.562Z,947.54
2023-03-19T01:10:04.566Z,947.53
2023-03-19T01:10:15.577Z,947.53
2023-03-19T01:10:26.614Z,947.52
2023-03-19T01:10:38.590Z,947.51
2023-03-19T01:10:49.592Z,947.51
2023-03-19T01:11:01.577Z,947.50
2023-03-19T01:11:13.570Z,947.50
2023-03-19T01:11:24.576Z,947.50
2023-03-19T01:11:35.587Z,947.49
2023-03-19T01:11:46.590Z,947.49
2023-03-19T01:11:57.598Z,947.49
2023-03-19T01:12:09.592Z,947.49
2023-03-19T01:12:20.596Z,947.49
2023-03-19T01:12:31.596Z,947.48
2023-03-19T01:12:43.582Z,947.49
2023-03-19T01:12:54.602Z,947.49
2023-03-19T01:13:05.603Z,947.49
2023-03-19T01:13:17.594Z,947.49
2023-03-19T01:13:29.575Z,947.49
2023-03-19T01:13:40.581Z,947.49
2023-03-19T01:13:52.590Z,947.49
2023-03-19T01:14:03.600Z,947.49
2023-03-19T01:14:14.593Z,947.49
2023-03-19T01:14:26.607Z,947.49
2023-03-19T01:14:37.591Z,947.49
2023-03-19T01:14:49.631Z,947.49
2023-03-19T01:15:01.615Z,947.49
2023-03-19T01:15:13.627Z,947.49
2023-03-19T01:15:25.625Z,947.49
2023-03-19T01:15:37.609Z,947.49
2023-03-19T01:15:49.580Z,947.49
2023-03-19T01:16:00.588Z,947.49
2023-03-19T01:16:12.569Z,947.49
2023-03-19T01:16:23.550Z,947.49
2023-03-19T01:16:34.576Z,947.49
2023-03-19T01:16:45.570Z,947.49
2023-03-19T01:16:56.603Z,947.49
2023-03-19T01:17:08.579Z,947.49
2023-03-19T01:17:19.592Z,947.49
2023-03-19T01:17:30.622Z,947.49
2023-03-19T01:17:42.592Z,947.49
2023-03-19T01:17:53.597Z,947.49
2023-03-19T01:18:04.603Z,947.49
2023-03-19T01:18:16.584Z,947.49
2023-03-19T01:18:27.594Z,947.50
2023-03-19T01:18:38.584Z,947.50
2023-03-19T01:18:49.615Z,947.50
2023-03-19T01:19:01.578Z,947.50
2023-03-19T01:19:12.577Z,947.50
2023-03-19T01:19:23.579Z,947.50
2023-03-19T01:19:34.581Z,947.50
2023-03-19T01:19:46.614Z,947.49
2023-03-19T01:19:58.583Z,947.49
2023-03-19T01:20:10.565Z,947.49
2023-03-19T01:20:21.559Z,947.50
2023-03-19T01:20:32.791Z,947.49
2023-03-19T01:20:43.576Z,947.49
2023-03-19T01:20:54.581Z,947.49
2023-03-19T01:21:05.575Z,947.49
2023-03-19T01:21:16.585Z,947.49
2023-03-19T01:21:28.588Z,947.49
2023-03-19T01:21:39.597Z,947.49
2023-03-19T01:21:51.579Z,947.49
2023-03-19T01:22:02.590Z,947.49
2023-03-19T01:22:13.609Z,947.49
2023-03-19T01:22:25.584Z,947.49
2023-03-19T01:22:36.588Z,947.49
2023-03-19T01:22:47.592Z,947.49
2023-03-19T01:22:59.575Z,947.48
2023-03-19T01:23:10.568Z,947.48
2023-03-19T01:23:21.592Z,947.48
2023-03-19T01:23:33.588Z,947.48
2023-03-19T01:23:44.589Z,947.48
2023-03-19T01:23:56.610Z,947.48
2023-03-19T01:24:08.585Z,947.48
2023-03-19T01:24:19.592Z,947.48
2023-03-19T01:24:31.574Z,947.49
2023-03-19T01:24:43.588Z,947.49
2023-03-19T01:24:54.593Z,947.48
2023-03-19T01:25:05.593Z,947.48
2023-03-19T01:25:16.566Z,947.48
2023-03-19T01:25:27.572Z,947.48
2023-03-19T01:25:38.605Z,947.48
2023-03-19T01:25:50.581Z,947.48
2023-03-19T01:26:01.569Z,947.48
2023-03-19T01:26:12.577Z,947.48
2023-03-19T01:26:23.611Z,947.48
2023-03-19T01:26:35.591Z,947.48
2023-03-19T01:26:46.591Z,947.48
2023-03-19T01:26:57.611Z,947.48
2023-03-19T01:27:09.567Z,947.48
2023-03-19T01:27:20.590Z,947.48
2023-03-19T01:27:31.588Z,947.49
2023-03-19T01:27:42.605Z,947.48
2023-03-19T01:27:53.603Z,947.48
2023-03-19T01:28:05.571Z,947.49
2023-03-19T01:28:16.580Z,947.49
2023-03-19T01:28:27.583Z,947.48
2023-03-19T01:28:39.596Z,947.49
2023-03-19T01:28:50.590Z,947.49
2023-03-19T01:29:01.591Z,947.48
2023-03-19T01:29:12.595Z,947.48
2023-03-19T01:29:23.601Z,947.48
2023-03-19T01:29:34.600Z,947.48
2023-03-19T01:29:46.570Z,947.48
2023-03-19T01:29:57.596Z,947.48
2023-03-19T01:30:08.590Z,947.48
2023-03-19T01:30:20.591Z,947.48
2023-03-19T01:30:31.876Z,947.48
2023-03-19T01:30:42.564Z,947.48
2023-03-19T01:30:53.600Z,947.48
2023-03-19T01:31:05.634Z,947.48
2023-03-19T01:31:16.663Z,947.49
2023-03-19T01:31:27.663Z,947.49
2023-03-19T01:31:39.599Z,947.49
2023-03-19T01:31:50.594Z,947.49
2023-03-19T01:32:01.628Z,947.49
2023-03-19T01:32:13.622Z,947.49
2023-03-19T01:32:25.588Z,947.50
2023-03-19T01:32:37.664Z,947.49
2023-03-19T01:32:49.642Z,947.50
2023-03-19T01:33:00.722Z,947.50
2023-03-19T01:33:11.654Z,947.50
2023-03-19T01:33:25.623Z,947.50
2023-03-19T01:33:35.581Z,947.50
2023-03-19T01:33:46.624Z,947.49
2023-03-19T01:33:58.610Z,947.49
2023-03-19T01:34:10.577Z,947.49
2023-03-19T01:34:21.591Z,947.50
2023-03-19T01:34:32.604Z,947.50
2023-03-19T01:34:44.578Z,947.50
2023-03-19T01:34:55.579Z,947.50
2023-03-19T01:35:06.580Z,947.50
2023-03-19T01:35:17.595Z,947.49
2023-03-19T01:35:28.600Z,947.49
2023-03-19T01:35:40.642Z,947.49
2023-03-19T01:35:51.564Z,947.49
2023-03-19T01:36:02.719Z,947.49
2023-03-19T01:36:13.561Z,947.49
2023-03-19T01:36:24.568Z,947.49
2023-03-19T01:36:35.586Z,947.48
2023-03-19T01:36:46.608Z,947.48
2023-03-19T01:36:58.572Z,947.48
2023-03-19T01:37:09.573Z,947.48
2023-03-19T01:37:20.593Z,947.48
2023-03-19T01:37:32.586Z,947.48
2023-03-19T01:37:43.564Z,947.48
2023-03-19T01:37:54.573Z,947.48
2023-03-19T01:38:05.601Z,947.48
2023-03-19T01:38:16.600Z,947.48
2023-03-19T01:38:28.572Z,947.48
2023-03-19T01:38:39.609Z,947.48
2023-03-19T01:38:51.583Z,947.47
2023-03-19T01:39:03.581Z,947.48
2023-03-19T01:39:14.589Z,947.47
2023-03-19T01:39:25.595Z,947.47
2023-03-19T01:39:37.572Z,947.47
2023-03-19T01:39:48.585Z,947.47
2023-03-19T01:39:59.578Z,947.47
2023-03-19T01:40:10.603Z,947.47
2023-03-19T01:40:22.588Z,947.47
2023-03-19T01:40:34.807Z,947.47
2023-03-19T01:40:45.548Z,947.47
2023-03-19T01:40:56.549Z,947.47
2023-03-19T01:41:07.579Z,947.47
2023-03-19T01:41:18.595Z,947.47
2023-03-19T01:41:29.593Z,947.47
2023-03-19T01:41:40.595Z,947.47
2023-03-19T01:41:51.595Z,947.47
2023-03-19T01:42:02.594Z,947.47
2023-03-19T01:42:14.592Z,947.47
2023-03-19T01:42:26.588Z,947.47
2023-03-19T01:42:37.583Z,947.47
2023-03-19T01:42:49.611Z,947.47
2023-03-19T01:43:01.593Z,947.47
2023-03-19T01:43:12.605Z,947.47
2023-03-19T01:43:24.570Z,947.48
2023-03-19T01:43:35.570Z,947.47
2023-03-19T01:43:46.568Z,947.47
2023-03-19T01:43:57.569Z,947.47
2023-03-19T01:44:08.578Z,947.47
2023-03-19T01:44:19.585Z,947.47
2023-03-19T01:44:30.596Z,947.47
2023-03-19T01:44:42.563Z,947.47
2023-03-19T01:44:53.586Z,947.47
2023-03-19T01:45:04.600Z,947.47
2023-03-19T01:45:16.598Z,947.47
2023-03-19T01:45:27.604Z,947.47
2023-03-19T01:45:39.580Z,947.47
2023-03-19T01:45:51.425Z,947.47
2023-03-19T01:46:01.651Z,947.47
2023-03-19T01:46:13.619Z,947.47
2023-03-19T01:46:24.577Z,947.47
2023-03-19T01:46:35.696Z,947.47
2023-03-19T01:46:47.777Z,947.47
2023-03-19T01:46:59.573Z,947.46
2023-03-19T01:47:10.594Z,947.46
2023-03-19T01:47:22.588Z,947.47
2023-03-19T01:47:33.602Z,947.46
2023-03-19T01:47:45.573Z,947.46
2023-03-19T01:47:56.591Z,947.46
2023-03-19T01:48:07.586Z,947.46
2023-03-19T01:48:19.579Z,947.46
2023-03-19T01:48:30.640Z,947.46
2023-03-19T01:48:41.603Z,947.46
2023-03-19T01:48:52.628Z,947.46
2023-03-19T01:49:04.637Z,947.46
2023-03-19T01:49:16.601Z,947.45
2023-03-19T01:49:27.597Z,947.45
2023-03-19T01:49:38.602Z,947.45
2023-03-19T01:49:49.605Z,947.45
2023-03-19T01:50:01.579Z,947.46
2023-03-19T01:50:12.596Z,947.46
2023-03-19T01:50:24.588Z,947.46
2023-03-19T01:50:36.577Z,947.46
2023-03-19T01:50:47.658Z,947.46
2023-03-19T01:50:59.621Z,947.46
2023-03-19T01:51:11.628Z,947.45
2023-03-19T01:51:23.597Z,947.45
2023-03-19T01:51:34.599Z,947.45
2023-03-19T01:51:46.599Z,947.45
2023-03-19T01:51:58.605Z,947.45
2023-03-19T01:52:10.584Z,947.44
2023-03-19T01:52:22.573Z,947.44
2023-03-19T01:52:33.573Z,947.44
2023-03-19T01:52:44.576Z,947.44
2023-03-19T01:52:55.574Z,947.44
2023-03-19T01:53:06.593Z,947.44
2023-03-19T01:53:17.622Z,947.44
2023-03-19T01:53:29.596Z,947.44
2023-03-19T01:53:40.590Z,947.44
2023-03-19T01:53:51.595Z,947.45
2023-03-19T01:54:03.568Z,947.45
2023-03-19T01:54:14.618Z,947.45
2023-03-19T01:54:26.593Z,947.44
2023-03-19T01:54:38.575Z,947.44
2023-03-19T01:54:49.589Z,947.44
2023-03-19T01:55:01.582Z,947.44
2023-03-19T01:55:12.574Z,947.44
2023-03-19T01:55:23.596Z,947.43
2023-03-19T01:55:34.596Z,947.43
2023-03-19T01:55:45.598Z,947.44
2023-03-19T01:55:57.583Z,947.43
2023-03-19T01:56:08.584Z,947.43
2023-03-19T01:56:19.606Z,947.43
2023-03-19T01:56:30.596Z,947.43
2023-03-19T01:56:42.585Z,947.43
2023-03-19T01:56:53.588Z,947.43
2023-03-19T01:57:04.554Z,947.43
2023-03-19T01:57:15.562Z,947.43
2023-03-19T01:57:26.564Z,947.43
2023-03-19T01:57:37.593Z,947.43
2023-03-19T01:57:48.597Z,947.42
2023-03-19T01:58:00.592Z,947.42
2023-03-19T01:58:11.599Z,947.42
2023-03-19T01:58:25.853Z,947.42
2023-03-19T01:58:34.541Z,947.42
2023-03-19T01:58:45.573Z,947.43
2023-03-19T01:58:56.570Z,947.42
2023-03-19T01:59:07.575Z,947.43
2023-03-19T01:59:18.563Z,947.43
2023-03-19T01:59:29.589Z,947.43
2023-03-19T01:59:40.603Z,947.43
2023-03-19T01:59:51.608Z,947.43
2023-03-19T02:00:03.599Z,947.43
2023-03-19T02:00:15.591Z,947.43
2023-03-19T02:00:27.590Z,947.43
2023-03-19T02:00:38.596Z,947.43
2023-03-19T02:00:50.590Z,947.43
2023-03-19T02:01:02.571Z,947.43
2023-03-19T02:01:13.602Z,947.43
2023-03-19T02:01:25.609Z,947.44
2023-03-19T02:01:37.607Z,947.44
2023-03-19T02:01:48.584Z,947.44
2023-03-19T02:02:00.637Z,947.44
2023-03-19T02:02:11.566Z,947.44
2023-03-19T02:02:22.564Z,947.44
2023-03-19T02:02:33.582Z,947.44
2023-03-19T02:02:45.569Z,947.44
2023-03-19T02:02:56.598Z,947.44
2023-03-19T02:03:08.573Z,947.44
2023-03-19T02:03:20.573Z,947.44
2023-03-19T02:03:31.567Z,947.45
2023-03-19T02:03:42.577Z,947.45
2023-03-19T02:03:53.593Z,947.45
2023-03-19T02:04:05.693Z,947.45
2023-03-19T02:04:17.647Z,947.45
2023-03-19T02:04:28.624Z,947.45
2023-03-19T02:04:39.645Z,947.45
2023-03-19T02:04:50.659Z,947.45
2023-03-19T02:05:01.608Z,947.45
2023-03-19T02:05:13.579Z,947.45
2023-03-19T02:05:24.580Z,947.45
2023-03-19T02:05:35.599Z,947.46
2023-03-19T02:05:47.592Z,947.46
2023-03-19T02:05:59.568Z,947.46
2023-03-19T02:06:10.612Z,947.46
2023-03-19T02:06:22.580Z,947.46
2023-03-19T02:06:33.620Z,947.46
2023-03-19T02:06:45.594Z,947.46
2023-03-19T02:06:56.599Z,947.46
2023-03-19T02:07:07.598Z,947.46
2023-03-19T02:07:19.575Z,947.46
2023-03-19T02:07:30.579Z,947.46
2023-03-19T02:07:41.597Z,947.46
2023-03-19T02:07:53.572Z,947.46
2023-03-19T02:08:04.616Z,947.46
2023-03-19T02:08:16.564Z,947.46
2023-03-19T02:08:27.568Z,947.46
2023-03-19T02:08:39.576Z,947.46
2023-03-19T02:08:50.592Z,947.46
2023-03-19T02:09:02.564Z,947.46
2023-03-19T02:09:14.596Z,947.46
2023-03-19T02:09:25.604Z,947.46
2023-03-19T02:09:37.587Z,947.45
2023-03-19T02:09:48.606Z,947.45
2023-03-19T02:10:00.583Z,947.45
2023-03-19T02:10:11.592Z,947.45
2023-03-19T02:10:23.581Z,947.45
2023-03-19T02:10:34.920Z,947.45
2023-03-19T02:10:46.580Z,947.45
2023-03-19T02:10:57.592Z,947.44
2023-03-19T02:11:09.597Z,947.44
2023-03-19T02:11:20.614Z,947.44
2023-03-19T02:11:32.605Z,947.44
2023-03-19T02:11:43.599Z,947.44
2023-03-19T02:11:54.613Z,947.44
2023-03-19T02:12:06.587Z,947.44
2023-03-19T02:12:17.593Z,947.44
2023-03-19T02:12:29.561Z,947.44
2023-03-19T02:12:40.575Z,947.44
2023-03-19T02:12:51.620Z,947.44
2023-03-19T02:13:03.645Z,947.44
2023-03-19T02:13:15.678Z,947.44
2023-03-19T02:13:26.628Z,947.44
2023-03-19T02:13:38.616Z,947.44
2023-03-19T02:13:50.621Z,947.44
2023-03-19T02:14:02.592Z,947.44
2023-03-19T02:14:14.568Z,947.43
2023-03-19T02:14:25.600Z,947.43
2023-03-19T02:14:37.600Z,947.43
2023-03-19T02:14:49.576Z,947.43
2023-03-19T02:15:00.592Z,947.43
2023-03-19T02:15:12.567Z,947.43
2023-03-19T02:15:24.576Z,947.42
2023-03-19T02:15:35.601Z,947.42
2023-03-19T02:15:47.621Z,947.41
2023-03-19T02:15:58.630Z,947.41
2023-03-19T02:16:10.668Z,947.41
2023-03-19T02:16:21.612Z,947.41
2023-03-19T02:16:33.671Z,947.41
2023-03-19T02:16:45.579Z,947.41
2023-03-19T02:16:56.590Z,947.41
2023-03-19T02:17:08.608Z,947.41
2023-03-19T02:17:20.582Z,947.41
2023-03-19T02:17:31.579Z,947.41
2023-03-19T02:17:42.590Z,947.41
2023-03-19T02:17:54.569Z,947.41
2023-03-19T02:18:06.564Z,947.41
2023-03-19T02:18:17.638Z,947.41
2023-03-19T02:18:29.619Z,947.41
2023-03-19T02:18:41.589Z,947.41
2023-03-19T02:18:52.594Z,947.41
2023-03-19T02:19:04.585Z,947.41
2023-03-19T02:19:15.590Z,947.41
2023-03-19T02:19:26.592Z,947.41
2023-03-19T02:19:37.602Z,947.41
2023-03-19T02:19:49.583Z,947.40
2023-03-19T02:20:00.607Z,947.40
2023-03-19T02:20:12.573Z,947.40
2023-03-19T02:20:23.599Z,947.41
2023-03-19T02:20:35.839Z,947.41
2023-03-19T02:20:47.597Z,947.40
2023-03-19T02:20:59.579Z,947.41
2023-03-19T02:21:10.595Z,947.41
2023-03-19T02:21:22.592Z,947.41
2023-03-19T02:21:34.566Z,947.41
2023-03-19T02:21:45.595Z,947.41
2023-03-19T02:21:56.602Z,947.41
2023-03-19T02:22:08.575Z,947.41